createdAt,value
2018-09-11T00:00:36.816Z,17.50
2018-09-11T00:01:36.781Z,17.44
2018-09-11T00:02:36.773Z,17.54
2018-09-11T00:03:36.901Z,17.52
2018-09-11T00:04:36.735Z,17.53
2018-09-11T00:05:36.726Z,17.49
2018-09-11T00:06:36.712Z,17.47
2018-09-11T00:07:36.688Z,17.50
2018-09-11T00:08:36.670Z,17.46
2018-09-11T00:09:36.654Z,17.42
2018-09-11T00:10:36.651Z,17.42
2018-09-11T00:11:36.631Z,17.49
2018-09-11T00:12:36.607Z,17.37
2018-09-11T00:13:36.590Z,17.34
2018-09-11T00:14:36.574Z,17.37
2018-09-11T00:15:36.561Z,17.32
2018-09-11T00:16:36.550Z,17.37
2018-09-11T00:17:36.529Z,17.42
2018-09-11T00:18:36.513Z,17.34
2018-09-11T00:19:36.694Z,17.41
2018-09-11T00:20:36.482Z,17.46
2018-09-11T00:21:36.483Z,17.41
2018-09-11T00:22:36.523Z,17.47
2018-09-11T00:23:36.432Z,17.44
2018-09-11T00:24:36.424Z,17.41
2018-09-11T00:25:36.407Z,17.39
2018-09-11T00:26:36.385Z,17.50
2018-09-11T00:27:36.368Z,17.35
2018-09-11T00:28:36.357Z,17.32
2018-09-11T00:29:36.344Z,17.34
2018-09-11T00:30:36.320Z,17.37
2018-09-11T00:31:36.308Z,17.39
2018-09-11T00:32:36.296Z,17.38
2018-09-11T00:33:36.275Z,17.32
2018-09-11T00:34:36.255Z,17.24
2018-09-11T00:35:36.240Z,17.34
2018-09-11T00:36:36.225Z,17.30
2018-09-11T00:37:36.207Z,17.32
2018-09-11T00:38:36.204Z,17.32
2018-09-11T00:39:36.175Z,17.22
2018-09-11T00:40:36.161Z,17.20
2018-09-11T00:41:36.146Z,17.16
2018-09-11T00:42:36.128Z,17.22
2018-09-11T00:43:36.115Z,17.23
2018-09-11T00:44:36.145Z,17.30
2018-09-11T00:45:36.091Z,17.30
2018-09-11T00:46:36.064Z,17.30
2018-09-11T00:47:36.047Z,17.34
2018-09-11T00:48:36.032Z,17.31
2018-09-11T00:49:36.046Z,17.37
2018-09-11T00:50:36.000Z,17.28
2018-09-11T00:51:35.987Z,17.19
2018-09-11T00:52:35.987Z,17.02
2018-09-11T00:53:35.955Z,17.05
2018-09-11T00:54:35.934Z,17.07
2018-09-11T00:55:35.928Z,17.09
2018-09-11T00:56:35.904Z,17.05
2018-09-11T00:57:35.889Z,17.04
2018-09-11T00:58:35.876Z,17.10
2018-09-11T00:59:35.854Z,17.16
2018-09-11T01:00:35.838Z,17.17
2018-09-11T01:01:35.823Z,17.20
2018-09-11T01:02:35.809Z,17.17
2018-09-11T01:03:35.794Z,17.27
2018-09-11T01:04:35.772Z,17.22
2018-09-11T01:05:35.768Z,17.14
2018-09-11T01:06:35.742Z,17.16
2018-09-11T01:07:35.726Z,17.05
2018-09-11T01:08:35.721Z,17.09
2018-09-11T01:09:35.696Z,17.05
2018-09-11T01:10:35.677Z,17.12
2018-09-11T01:11:35.712Z,17.02
2018-09-11T01:12:35.651Z,17.07
2018-09-11T01:13:35.637Z,16.99
2018-09-11T01:14:35.615Z,16.98
2018-09-11T01:15:35.594Z,16.94
2018-09-11T01:16:35.582Z,16.91
2018-09-11T01:17:35.564Z,16.83
2018-09-11T01:18:35.546Z,16.83
2018-09-11T01:19:35.532Z,16.80
2018-09-11T01:20:35.516Z,16.84
2018-09-11T01:21:35.501Z,16.84
2018-09-11T01:22:35.482Z,16.80
2018-09-11T01:23:35.473Z,16.94
2018-09-11T01:24:35.474Z,16.97
2018-09-11T01:25:35.445Z,16.98
2018-09-11T01:26:35.418Z,16.92
2018-09-11T01:27:35.485Z,16.98
2018-09-11T01:28:35.395Z,17.01
2018-09-11T01:29:35.374Z,16.99
2018-09-11T01:30:35.364Z,17.05
2018-09-11T01:31:35.338Z,17.09
2018-09-11T01:32:35.326Z,17.09
2018-09-11T01:33:35.306Z,17.05
2018-09-11T01:34:35.290Z,17.01
2018-09-11T01:35:35.283Z,17.05
2018-09-11T01:36:35.263Z,16.97
2018-09-11T01:37:35.241Z,16.92
2018-09-11T01:38:35.224Z,16.92
2018-09-11T01:39:35.212Z,17.01
2018-09-11T01:40:35.190Z,16.95
2018-09-11T01:41:35.176Z,16.94
2018-09-11T01:42:35.161Z,16.94
2018-09-11T01:43:35.143Z,16.86
2018-09-11T01:45:23.004Z,16.82
2018-09-11T01:46:18.883Z,16.89
2018-09-11T01:47:18.870Z,16.83
2018-09-11T01:48:18.850Z,16.82
2018-09-11T01:49:18.832Z,16.86
2018-09-11T01:50:18.820Z,16.91
2018-09-11T01:51:18.800Z,16.83
2018-09-11T01:52:18.784Z,16.79
2018-09-11T01:53:18.768Z,16.87
2018-09-11T01:54:18.752Z,16.83
2018-09-11T01:55:18.734Z,16.89
2018-09-11T01:56:18.772Z,16.83
2018-09-11T01:57:18.706Z,16.82
2018-09-11T01:58:18.690Z,16.87
2018-09-11T02:01:04.223Z,16.77
2018-09-11T02:02:04.202Z,16.91
2018-09-11T02:03:04.285Z,16.79
2018-09-11T02:04:04.169Z,16.83
2018-09-11T02:05:04.155Z,16.80
2018-09-11T02:06:04.139Z,16.86
2018-09-11T02:07:04.127Z,16.77
2018-09-11T02:08:04.108Z,16.74
2018-09-11T02:09:37.302Z,16.79
2018-09-11T02:10:04.082Z,16.79
2018-09-11T02:11:04.054Z,16.77
2018-09-11T02:12:04.040Z,16.80
2018-09-11T02:13:04.021Z,16.73
2018-09-11T02:14:04.008Z,16.73
2018-09-11T02:15:03.999Z,16.66
2018-09-11T02:16:03.978Z,16.74
2018-09-11T02:17:03.955Z,16.74
2018-09-11T02:18:03.941Z,16.72
2018-09-11T02:19:03.926Z,16.77
2018-09-11T02:20:03.913Z,16.72
2018-09-11T02:21:03.893Z,16.72
2018-09-11T02:22:03.878Z,16.66
2018-09-11T02:23:03.859Z,16.69
2018-09-11T02:24:03.837Z,16.69
2018-09-11T02:25:03.879Z,16.79
2018-09-11T02:26:03.808Z,16.79
2018-09-11T02:27:03.791Z,16.83
2018-09-11T02:28:03.771Z,16.72
2018-09-11T02:29:03.760Z,16.79
2018-09-11T02:30:03.795Z,16.82
2018-09-11T02:31:03.772Z,16.76
2018-09-11T02:32:03.708Z,16.80
2018-09-11T02:33:03.693Z,16.80
2018-09-11T02:34:03.677Z,16.82
2018-09-11T02:35:03.659Z,16.77
2018-09-11T02:36:03.649Z,16.76
2018-09-11T02:37:03.628Z,16.72
2018-09-11T02:38:03.607Z,16.86
2018-09-11T02:39:03.592Z,16.87
2018-09-11T02:40:03.585Z,16.80
2018-09-11T02:41:03.556Z,16.79
2018-09-11T02:42:03.547Z,16.77
2018-09-11T02:44:03.506Z,16.79
2018-09-11T02:45:03.491Z,16.72
2018-09-11T02:46:03.475Z,16.62
2018-09-11T02:47:03.455Z,16.72
2018-09-11T02:48:03.445Z,16.73
2018-09-11T02:49:03.549Z,16.65
2018-09-11T02:50:03.411Z,16.80
2018-09-11T02:51:03.390Z,16.72
2018-09-11T02:52:03.384Z,16.79
2018-09-11T02:53:03.357Z,16.74
2018-09-11T02:54:03.341Z,16.74
2018-09-11T02:55:03.326Z,16.62
2018-09-11T02:56:03.314Z,16.66
2018-09-11T02:57:03.291Z,16.59
2018-09-11T02:58:03.278Z,16.55
2018-09-11T02:59:03.259Z,16.65
2018-09-11T03:00:03.240Z,16.76
2018-09-11T03:01:03.237Z,16.73
2018-09-11T03:02:03.208Z,16.69
2018-09-11T03:03:03.202Z,16.59
2018-09-11T03:04:03.184Z,16.68
2018-09-11T03:05:03.160Z,16.66
2018-09-11T03:06:03.149Z,16.68
2018-09-11T03:07:03.127Z,16.66
2018-09-11T03:08:03.143Z,16.58
2018-09-11T03:09:03.094Z,16.59
2018-09-11T03:10:03.076Z,16.64
2018-09-11T03:11:03.158Z,16.79
2018-09-11T03:12:03.050Z,16.72
2018-09-11T03:13:03.025Z,16.69
2018-09-11T03:14:03.022Z,16.66
2018-09-11T03:15:02.993Z,16.72
2018-09-11T03:16:03.063Z,16.77
2018-09-11T03:17:02.958Z,16.58
2018-09-11T03:18:02.988Z,16.57
2018-09-11T03:19:03.115Z,16.59
2018-09-11T03:20:02.908Z,16.62
2018-09-11T03:21:02.892Z,16.54
2018-09-11T03:22:02.877Z,16.54
2018-09-11T03:23:02.859Z,16.50
2018-09-11T03:24:02.842Z,16.55
2018-09-11T03:25:02.827Z,16.49
2018-09-11T03:26:02.813Z,16.44
2018-09-11T03:27:02.792Z,16.47
2018-09-11T03:28:02.777Z,16.54
2018-09-11T03:29:02.760Z,16.44
2018-09-11T03:30:02.743Z,16.50
2018-09-11T03:31:02.737Z,16.54
2018-09-11T03:32:02.713Z,16.49
2018-09-11T03:33:02.692Z,16.50
2018-09-11T03:34:02.692Z,16.47
2018-09-11T03:35:02.773Z,16.37
2018-09-11T03:36:02.642Z,16.51
2018-09-11T03:37:02.658Z,16.37
2018-09-11T03:38:02.615Z,16.34
2018-09-11T03:39:02.590Z,16.41
2018-09-11T03:40:02.577Z,16.39
2018-09-11T03:41:02.567Z,16.37
2018-09-11T03:42:02.554Z,16.28
2018-09-11T03:43:02.526Z,16.32
2018-09-11T03:44:02.568Z,16.32
2018-09-11T03:45:02.499Z,16.22
2018-09-11T03:46:02.475Z,16.17
2018-09-11T03:47:02.461Z,16.18
2018-09-11T03:48:02.443Z,16.31
2018-09-11T03:49:02.425Z,16.28
2018-09-11T03:50:02.410Z,16.29
2018-09-11T03:51:02.393Z,16.22
2018-09-11T03:52:02.375Z,16.31
2018-09-11T03:53:02.357Z,16.28
2018-09-11T03:54:02.342Z,16.32
2018-09-11T03:55:02.328Z,16.28
2018-09-11T03:56:02.322Z,16.28
2018-09-11T03:57:02.344Z,16.39
2018-09-11T03:58:02.284Z,16.39
2018-09-11T03:59:02.256Z,16.39
2018-09-11T04:00:02.249Z,16.40
2018-09-11T04:01:02.223Z,16.50
2018-09-11T04:02:02.206Z,16.49
2018-09-11T04:03:02.199Z,16.43
2018-09-11T04:04:02.172Z,16.47
2018-09-11T04:05:02.173Z,16.46
2018-09-11T04:06:02.141Z,16.47
2018-09-11T04:07:02.129Z,16.46
2018-09-11T04:08:02.110Z,16.47
2018-09-11T04:09:02.089Z,16.54
2018-09-11T04:10:02.074Z,16.47
2018-09-11T04:11:02.053Z,16.49
2018-09-11T04:12:02.038Z,16.51
2018-09-11T04:13:02.023Z,16.51
2018-09-11T04:14:02.008Z,16.50
2018-09-11T04:15:01.992Z,16.46
2018-09-11T04:16:01.974Z,16.47
2018-09-11T04:17:01.961Z,16.44
2018-09-11T04:18:01.938Z,16.47
2018-09-11T04:19:01.921Z,16.47
2018-09-11T04:20:01.903Z,16.50
2018-09-11T04:21:01.892Z,16.50
2018-09-11T04:22:01.870Z,16.46
2018-09-11T04:23:01.852Z,16.46
2018-09-11T04:24:01.837Z,16.46
2018-09-11T04:25:01.822Z,16.49
2018-09-11T04:26:01.807Z,16.40
2018-09-11T04:27:01.788Z,16.37
2018-09-11T04:28:01.771Z,16.39
2018-09-11T04:29:01.755Z,16.32
2018-09-11T04:30:01.739Z,16.31
2018-09-11T04:31:01.725Z,16.32
2018-09-11T04:32:01.704Z,16.24
2018-09-11T04:33:01.688Z,16.34
2018-09-11T04:34:01.672Z,16.25
2018-09-11T04:35:01.659Z,16.26
2018-09-11T04:36:01.635Z,16.16
2018-09-11T04:37:01.621Z,16.17
2018-09-11T04:38:01.607Z,16.17
2018-09-11T04:39:01.586Z,16.21
2018-09-11T04:40:01.571Z,16.16
2018-09-11T04:41:01.569Z,16.08
2018-09-11T04:42:01.536Z,16.13
2018-09-11T04:43:01.722Z,16.12
2018-09-11T04:44:01.511Z,16.22
2018-09-11T04:45:01.490Z,16.13
2018-09-11T04:46:01.478Z,16.10
2018-09-11T04:47:01.456Z,16.21
2018-09-11T04:48:01.437Z,16.17
2018-09-11T04:49:01.428Z,16.16
2018-09-11T04:50:01.403Z,16.12
2018-09-11T04:51:01.382Z,16.16
2018-09-11T04:52:01.375Z,16.31
2018-09-11T04:53:01.357Z,16.29
2018-09-11T04:54:01.331Z,16.31
2018-09-11T04:55:01.333Z,16.29
2018-09-11T04:56:01.354Z,16.34
2018-09-11T04:57:01.280Z,16.24
2018-09-11T04:58:01.265Z,16.28
2018-09-11T04:59:01.248Z,16.21
2018-09-11T05:00:01.230Z,16.22
2018-09-11T05:01:01.218Z,16.16
2018-09-11T05:02:01.197Z,16.34
2018-09-11T05:03:01.189Z,16.31
2018-09-11T05:04:01.163Z,16.34
2018-09-11T05:05:01.148Z,16.29
2018-09-11T05:06:01.128Z,16.36
2018-09-11T05:07:01.114Z,16.36
2018-09-11T05:08:01.098Z,16.37
2018-09-11T05:09:01.099Z,16.34
2018-09-11T05:10:01.075Z,16.40
2018-09-11T05:11:01.046Z,16.39
2018-09-11T05:12:01.026Z,16.47
2018-09-11T05:13:01.054Z,16.46
2018-09-11T05:14:00.992Z,16.37
2018-09-11T05:15:00.976Z,16.41
2018-09-11T05:16:00.958Z,16.37
2018-09-11T05:17:00.943Z,16.41
2018-09-11T05:18:00.924Z,16.49
2018-09-11T05:19:00.969Z,16.49
2018-09-11T05:20:00.891Z,16.43
2018-09-11T05:21:00.877Z,16.43
2018-09-11T05:22:00.859Z,16.50
2018-09-11T05:23:00.837Z,16.51
2018-09-11T05:24:00.831Z,16.47
2018-09-11T05:25:00.807Z,16.49
2018-09-11T05:26:00.789Z,16.49
2018-09-11T05:27:00.771Z,16.49
2018-09-11T05:28:00.758Z,16.50
2018-09-11T05:29:00.784Z,16.51
2018-09-11T05:30:00.721Z,16.62
2018-09-11T05:31:00.715Z,16.50
2018-09-11T05:32:00.758Z,16.50
2018-09-11T05:33:00.672Z,16.51
2018-09-11T05:34:00.654Z,16.62
2018-09-11T05:35:00.637Z,16.59
2018-09-11T05:36:00.621Z,16.61
2018-09-11T05:37:00.603Z,16.64
2018-09-11T05:38:00.585Z,16.68
2018-09-11T05:39:00.613Z,16.74
2018-09-11T05:40:00.553Z,16.68
2018-09-11T05:41:00.537Z,16.72
2018-09-11T05:42:00.522Z,16.73
2018-09-11T05:43:00.504Z,16.79
2018-09-11T05:44:00.486Z,16.82
2018-09-11T05:45:00.469Z,16.92
2018-09-11T05:46:00.455Z,16.79
2018-09-11T05:47:00.489Z,16.79
2018-09-11T05:48:00.421Z,16.77
2018-09-11T05:49:00.404Z,16.73
2018-09-11T05:50:00.397Z,16.76
2018-09-11T05:51:00.370Z,16.79
2018-09-11T05:52:00.351Z,16.76
2018-09-11T05:53:00.336Z,16.80
2018-09-11T05:54:00.321Z,16.79
2018-09-11T05:55:00.309Z,16.84
2018-09-11T05:56:00.297Z,16.76
2018-09-11T05:57:00.269Z,16.84
2018-09-11T05:58:00.265Z,16.74
2018-09-11T05:59:00.296Z,16.79
2018-09-11T06:00:00.219Z,16.79
2018-09-11T06:01:00.202Z,16.87
2018-09-11T06:02:00.196Z,16.80
2018-09-11T06:03:00.170Z,16.83
2018-09-11T06:04:00.154Z,16.84
2018-09-11T06:05:00.140Z,16.91
2018-09-11T06:06:00.119Z,17.10
2018-09-11T06:07:00.105Z,17.10
2018-09-11T06:08:00.089Z,17.09
2018-09-11T06:09:00.073Z,17.14
2018-09-11T06:10:00.058Z,17.10
2018-09-11T06:11:00.039Z,17.17
2018-09-11T06:12:00.021Z,17.16
2018-09-11T06:13:00.005Z,17.17
2018-09-11T06:14:00.003Z,17.22
2018-09-11T06:15:00.129Z,17.22
2018-09-11T06:15:59.955Z,17.30
2018-09-11T06:16:59.941Z,17.24
2018-09-11T06:17:59.968Z,17.32
2018-09-11T06:18:59.905Z,17.41
2018-09-11T06:19:59.891Z,17.49
2018-09-11T06:20:59.887Z,17.53
2018-09-11T06:21:59.857Z,17.53
2018-09-11T06:22:59.843Z,17.50
2018-09-11T06:23:59.827Z,17.53
2018-09-11T06:24:59.811Z,17.41
2018-09-11T06:25:59.800Z,17.53
2018-09-11T06:26:59.785Z,17.56
2018-09-11T06:27:59.769Z,17.57
2018-09-11T06:28:59.834Z,17.66
2018-09-11T06:29:59.729Z,17.65
2018-09-11T06:30:59.713Z,17.60
2018-09-11T06:31:59.697Z,17.63
2018-09-11T06:32:59.681Z,17.68
2018-09-11T06:33:59.664Z,17.66
2018-09-11T06:34:59.648Z,17.79
2018-09-11T06:35:59.631Z,17.75
2018-09-11T06:36:59.618Z,17.80
2018-09-11T06:37:59.602Z,17.71
2018-09-11T06:38:59.595Z,17.72
2018-09-11T06:39:59.570Z,17.69
2018-09-11T06:40:59.565Z,17.84
2018-09-11T06:41:59.551Z,17.97
2018-09-11T06:42:59.525Z,17.98
2018-09-11T06:43:59.515Z,17.98
2018-09-11T06:44:59.600Z,18.06
2018-09-11T06:45:59.476Z,18.12
2018-09-11T06:46:59.523Z,18.13
2018-09-11T06:47:59.448Z,18.11
2018-09-11T06:48:59.429Z,18.06
2018-09-11T06:49:59.415Z,18.02
2018-09-11T06:50:59.396Z,18.09
2018-09-11T06:51:59.379Z,18.19
2018-09-11T06:52:59.367Z,18.21
2018-09-11T06:53:59.353Z,18.21
2018-09-11T06:54:59.336Z,18.24
2018-09-11T06:55:59.325Z,18.24
2018-09-11T06:56:59.310Z,18.12
2018-09-11T06:57:59.297Z,18.11
2018-09-11T06:58:59.319Z,18.05
2018-09-11T06:59:59.260Z,17.97
2018-09-11T07:00:59.441Z,18.00
2018-09-11T07:01:59.361Z,17.98
2018-09-11T07:02:59.213Z,17.95
2018-09-11T07:03:59.203Z,17.94
2018-09-11T07:04:59.187Z,18.02
2018-09-11T07:05:59.169Z,18.00
2018-09-11T07:06:59.148Z,18.05
2018-09-11T07:07:59.133Z,18.08
2018-09-11T07:08:59.129Z,18.09
2018-09-11T07:09:59.103Z,18.19
2018-09-11T07:10:59.102Z,18.19
2018-09-11T07:11:59.083Z,18.23
2018-09-11T07:12:59.057Z,18.46
2018-09-11T07:13:59.040Z,18.52
2018-09-11T07:14:59.027Z,18.67
2018-09-11T07:15:59.009Z,18.68
2018-09-11T07:16:59.107Z,18.68
2018-09-11T07:17:58.980Z,18.83
2018-09-11T07:18:58.963Z,18.81
2018-09-11T07:19:59.113Z,19.01
2018-09-11T07:20:58.934Z,19.00
2018-09-11T07:21:58.924Z,18.78
2018-09-11T07:22:58.900Z,18.79
2018-09-11T07:23:58.889Z,18.82
2018-09-11T07:24:58.871Z,18.91
2018-09-11T07:25:58.886Z,18.86
2018-09-11T07:26:58.841Z,19.01
2018-09-11T07:27:58.878Z,19.15
2018-09-11T07:28:58.812Z,19.08
2018-09-11T07:29:58.800Z,18.86
2018-09-11T07:30:58.791Z,18.94
2018-09-11T07:31:58.770Z,19.04
2018-09-11T07:32:58.752Z,19.17
2018-09-11T07:33:58.743Z,19.27
2018-09-11T07:34:58.728Z,19.34
2018-09-11T07:35:58.713Z,19.32
2018-09-11T07:36:58.691Z,19.48
2018-09-11T07:37:58.853Z,19.55
2018-09-11T07:38:58.674Z,19.56
2018-09-11T07:39:58.654Z,19.64
2018-09-11T07:40:58.633Z,19.72
2018-09-11T07:41:58.621Z,19.71
2018-09-11T07:42:58.603Z,19.56
2018-09-11T07:43:58.732Z,19.60
2018-09-11T07:44:58.576Z,19.71
2018-09-11T07:45:58.560Z,19.63
2018-09-11T07:46:58.701Z,19.59
2018-09-11T07:47:58.533Z,19.64
2018-09-11T07:48:58.521Z,19.72
2018-09-11T07:49:58.506Z,19.64
2018-09-11T07:50:58.491Z,19.77
2018-09-11T07:51:58.475Z,19.79
2018-09-11T07:52:58.526Z,19.81
2018-09-11T07:53:58.445Z,19.78
2018-09-11T07:54:58.434Z,19.94
2018-09-11T07:55:58.421Z,20.00
2018-09-11T07:56:58.405Z,19.89
2018-09-11T07:57:58.456Z,19.84
2018-09-11T07:58:58.375Z,19.96
2018-09-11T07:59:58.368Z,20.00
2018-09-11T08:00:58.366Z,20.02
2018-09-11T08:01:58.335Z,20.11
2018-09-11T08:02:58.372Z,20.12
2018-09-11T08:03:58.306Z,20.03
2018-09-11T08:04:58.291Z,20.08
2018-09-11T08:05:58.289Z,20.14
2018-09-11T08:06:58.268Z,20.15
2018-09-11T08:07:58.264Z,20.17
2018-09-11T08:08:58.239Z,20.15
2018-09-11T08:09:58.226Z,20.19
2018-09-11T08:10:58.250Z,20.24
2018-09-11T08:11:58.224Z,20.07
2018-09-11T08:12:58.181Z,20.00
2018-09-11T08:13:58.221Z,20.19
2018-09-11T08:14:58.157Z,20.00
2018-09-11T08:15:58.138Z,19.85
2018-09-11T08:16:58.131Z,19.82
2018-09-11T08:17:58.112Z,19.93
2018-09-11T08:18:58.101Z,19.97
2018-09-11T08:19:58.156Z,20.08
2018-09-11T08:20:58.071Z,20.12
2018-09-11T08:21:58.061Z,20.11
2018-09-11T08:22:58.067Z,19.97
2018-09-11T08:23:58.033Z,20.19
2018-09-11T08:24:58.025Z,20.29
2018-09-11T08:25:58.005Z,20.37
2018-09-11T08:26:57.989Z,20.52
2018-09-11T08:27:57.973Z,20.55
2018-09-11T08:28:57.962Z,20.64
2018-09-11T08:29:58.113Z,20.74
2018-09-11T08:30:57.935Z,20.68
2018-09-11T08:31:57.921Z,20.83
2018-09-11T08:32:57.907Z,20.74
2018-09-11T08:33:57.895Z,20.75
2018-09-11T08:34:57.883Z,20.82
2018-09-11T08:35:57.869Z,20.73
2018-09-11T08:36:57.857Z,20.75
2018-09-11T08:37:57.842Z,20.42
2018-09-11T08:38:57.859Z,20.37
2018-09-11T08:39:57.821Z,20.36
2018-09-11T08:40:57.853Z,20.34
2018-09-11T08:41:57.790Z,20.42
2018-09-11T08:42:57.776Z,20.55
2018-09-11T08:43:57.774Z,20.64
2018-09-11T08:44:57.754Z,20.71
2018-09-11T08:45:57.762Z,20.83
2018-09-11T08:46:57.722Z,20.90
2018-09-11T08:47:57.712Z,20.92
2018-09-11T08:48:57.701Z,20.71
2018-09-11T08:49:57.686Z,20.60
2018-09-11T08:50:57.676Z,20.80
2018-09-11T08:51:57.663Z,20.88
2018-09-11T08:52:57.645Z,20.56
2018-09-11T08:53:57.653Z,20.37
2018-09-11T08:54:57.627Z,20.46
2018-09-11T08:55:57.605Z,20.59
2018-09-11T08:56:57.592Z,20.68
2018-09-11T08:57:57.581Z,20.44
2018-09-11T08:58:57.583Z,20.50
2018-09-11T08:59:57.555Z,20.46
2018-09-11T09:00:57.549Z,20.75
2018-09-11T09:01:57.532Z,20.77
2018-09-11T09:02:57.515Z,20.75
2018-09-11T09:03:57.502Z,20.88
2018-09-11T09:04:57.494Z,20.88
2018-09-11T09:05:57.478Z,21.01
2018-09-11T09:06:57.462Z,21.04
2018-09-11T09:07:57.454Z,21.14
2018-09-11T09:08:57.437Z,21.40
2018-09-11T09:09:57.650Z,21.38
2018-09-11T09:10:57.413Z,21.59
2018-09-11T09:11:57.409Z,21.54
2018-09-11T09:12:57.406Z,21.58
2018-09-11T09:13:57.373Z,21.51
2018-09-11T09:14:57.369Z,21.37
2018-09-11T09:15:57.448Z,21.59
2018-09-11T09:16:57.336Z,21.50
2018-09-11T09:17:57.323Z,21.66
2018-09-11T09:18:57.314Z,21.63
2018-09-11T09:19:57.298Z,21.65
2018-09-11T09:20:57.368Z,21.66
2018-09-11T09:21:57.273Z,21.75
2018-09-11T09:22:57.261Z,21.92
2018-09-11T09:23:57.253Z,21.96
2018-09-11T09:24:57.238Z,22.08
2018-09-11T09:25:57.239Z,22.28
2018-09-11T09:26:57.213Z,22.25
2018-09-11T09:27:57.205Z,22.28
2018-09-11T09:28:57.246Z,22.33
2018-09-11T09:29:57.179Z,22.28
2018-09-11T09:30:57.228Z,22.46
2018-09-11T09:31:57.164Z,22.71
2018-09-11T09:32:57.147Z,22.81
2018-09-11T09:33:57.131Z,23.28
2018-09-11T09:34:57.115Z,23.67
2018-09-11T09:35:57.101Z,23.79
2018-09-11T09:36:57.106Z,24.14
2018-09-11T09:37:57.091Z,24.13
2018-09-11T09:38:57.067Z,24.59
2018-09-11T09:39:57.068Z,24.85
2018-09-11T09:40:57.046Z,24.92
2018-09-11T09:41:58.047Z,24.88
2018-09-11T09:42:57.028Z,24.59
2018-09-11T09:43:57.058Z,24.46
2018-09-11T09:44:57.006Z,24.58
2018-09-11T09:45:56.992Z,24.94
2018-09-11T09:46:56.981Z,25.04
2018-09-11T09:47:56.971Z,25.29
2018-09-11T09:48:56.963Z,25.56
2018-09-11T09:49:56.953Z,25.51
2018-09-11T09:50:59.641Z,25.66
2018-09-11T09:51:56.940Z,25.59
2018-09-11T09:52:56.920Z,25.25
2018-09-11T09:53:56.914Z,25.26
2018-09-11T09:54:56.903Z,24.61
2018-09-11T09:55:56.895Z,24.59
2018-09-11T09:57:56.887Z,24.96
2018-09-11T09:58:57.479Z,25.43
2018-09-11T09:59:57.470Z,25.33
2018-09-11T10:00:56.856Z,25.74
2018-09-11T10:04:24.404Z,25.78
2018-09-11T10:05:24.394Z,25.73
2018-09-11T10:06:24.393Z,25.89
2018-09-11T10:07:24.379Z,25.78
2018-09-11T10:08:24.434Z,25.73
2018-09-11T10:09:24.367Z,25.98
2018-09-11T10:10:24.370Z,25.99
2018-09-11T10:11:24.368Z,25.92
2018-09-11T10:12:24.349Z,26.19
2018-09-11T10:13:24.354Z,25.88
2018-09-11T10:14:26.969Z,25.95
2018-09-11T10:15:24.335Z,26.24
2018-09-11T10:16:24.329Z,26.10
2018-09-11T10:17:27.009Z,25.96
2018-09-11T10:18:24.326Z,26.01
2018-09-11T10:19:24.314Z,26.33
2018-09-11T10:20:24.314Z,26.15
2018-09-11T10:21:24.316Z,26.07
2018-09-11T10:22:24.300Z,26.34
2018-09-11T10:23:24.292Z,26.39
2018-09-11T10:24:24.367Z,26.39
2018-09-11T10:25:24.293Z,26.67
2018-09-11T10:26:24.479Z,26.78
2018-09-11T10:27:24.289Z,26.59
2018-09-11T10:28:24.272Z,26.49
2018-09-11T10:29:24.272Z,26.44
2018-09-11T10:30:24.260Z,26.26
2018-09-11T10:31:24.256Z,26.24
2018-09-11T10:32:24.264Z,26.36
2018-09-11T10:33:24.259Z,26.56
2018-09-11T10:34:24.248Z,26.85
2018-09-11T10:35:24.247Z,27.04
2018-09-11T10:36:24.234Z,27.19
2018-09-11T10:37:24.233Z,26.96
2018-09-11T10:38:24.238Z,26.91
2018-09-11T10:39:24.248Z,26.96
2018-09-11T10:40:24.221Z,26.88
2018-09-11T10:41:24.219Z,26.64
2018-09-11T10:42:24.326Z,26.66
2018-09-11T10:43:24.228Z,26.46
2018-09-11T10:44:25.014Z,27.04
2018-09-11T10:45:24.201Z,27.37
2018-09-11T10:46:24.219Z,27.53
2018-09-11T10:47:24.202Z,27.75
2018-09-11T10:48:26.820Z,27.23
2018-09-11T10:50:19.600Z,27.57
2018-09-11T10:52:45.750Z,27.40
2018-09-11T10:53:12.533Z,27.53
2018-09-11T10:55:29.777Z,28.09
2018-09-11T10:55:56.553Z,28.15
2018-09-11T10:56:56.556Z,28.20
2018-09-11T10:57:56.548Z,28.08
2018-09-11T10:58:56.546Z,28.18
2018-09-11T10:59:56.547Z,28.28
2018-09-11T11:00:56.551Z,28.50
2018-09-11T11:02:29.760Z,28.57
2018-09-11T11:02:56.537Z,28.89
2018-09-11T11:03:56.528Z,28.68
2018-09-11T11:04:56.524Z,28.31
2018-09-11T11:05:56.536Z,28.56
2018-09-11T11:06:56.533Z,28.62
2018-09-11T11:07:56.517Z,28.52
2018-09-11T11:08:56.554Z,28.82
2018-09-11T11:09:56.516Z,28.93
2018-09-11T11:11:29.716Z,28.52
2018-09-11T11:11:56.515Z,27.86
2018-09-11T11:12:56.505Z,27.86
2018-09-11T11:13:56.512Z,27.86
2018-09-11T11:14:56.494Z,27.95
2018-09-11T11:15:56.497Z,28.30
2018-09-11T11:16:56.553Z,28.45
2018-09-11T11:17:56.487Z,28.31
2018-09-11T11:18:56.484Z,28.18
2018-09-11T11:19:56.479Z,28.15
2018-09-11T11:20:56.480Z,28.37
2018-09-11T11:21:56.485Z,28.65
2018-09-11T11:22:59.141Z,28.38
2018-09-11T11:23:57.684Z,28.40
2018-09-11T11:24:56.470Z,28.08
2018-09-11T11:25:56.462Z,28.15
2018-09-11T11:26:56.511Z,27.93
2018-09-11T11:27:56.456Z,27.88
2018-09-11T11:28:56.453Z,27.63
2018-09-11T11:29:56.449Z,27.75
2018-09-11T11:30:56.445Z,27.68
2018-09-11T11:31:56.443Z,27.73
2018-09-11T11:32:56.442Z,27.86
2018-09-11T11:33:56.437Z,28.04
2018-09-11T11:34:56.431Z,27.98
2018-09-11T11:35:56.452Z,28.13
2018-09-11T11:36:56.631Z,28.15
2018-09-11T11:37:56.423Z,28.25
2018-09-11T11:38:56.416Z,28.15
2018-09-11T11:39:56.473Z,28.45
2018-09-11T11:40:56.411Z,28.31
2018-09-11T11:41:56.452Z,28.43
2018-09-11T11:42:56.425Z,28.65
2018-09-11T11:43:56.396Z,28.82
2018-09-11T11:44:56.393Z,28.72
2018-09-11T11:45:56.388Z,28.57
2018-09-11T11:48:33.921Z,28.04
2018-09-11T11:49:00.719Z,27.86
2018-09-11T11:50:00.692Z,27.88
2018-09-11T11:51:00.686Z,28.00
2018-09-11T11:52:00.692Z,28.06
2018-09-11T11:53:00.688Z,28.16
2018-09-11T11:54:00.672Z,28.38
2018-09-11T11:55:33.958Z,28.46
2018-09-11T11:56:00.668Z,28.35
2018-09-11T11:57:33.861Z,28.27
2018-09-11T11:58:00.650Z,28.30
2018-09-11T11:59:00.652Z,28.49
2018-09-11T12:01:28.329Z,28.19
2018-09-11T12:01:55.040Z,27.94
2018-09-11T12:02:55.025Z,28.08
2018-09-11T12:03:55.027Z,28.15
2018-09-11T12:04:55.009Z,28.25
2018-09-11T12:05:55.012Z,28.19
2018-09-11T12:06:55.026Z,28.01
2018-09-11T12:08:28.208Z,27.71
2018-09-11T12:08:54.981Z,27.18
2018-09-11T12:10:28.200Z,26.97
2018-09-11T12:10:54.966Z,26.86
2018-09-11T12:11:54.959Z,26.81
2018-09-11T12:12:54.954Z,26.82
2018-09-11T12:13:54.944Z,26.71
2018-09-11T12:14:54.936Z,26.70
2018-09-11T12:16:28.145Z,26.78
2018-09-11T12:16:54.993Z,26.83
2018-09-11T12:17:54.911Z,26.79
2018-09-11T12:18:54.901Z,26.73
2018-09-11T12:19:54.905Z,26.52
2018-09-11T12:20:54.893Z,26.27
2018-09-11T12:21:54.877Z,25.99
2018-09-11T12:22:54.869Z,25.92
2018-09-11T12:23:55.468Z,25.88
2018-09-11T12:26:13.725Z,26.01
2018-09-11T12:26:40.082Z,25.98
2018-09-11T12:27:38.618Z,26.10
2018-09-11T12:28:38.608Z,26.18
2018-09-11T12:29:38.600Z,26.24
2018-09-11T12:30:38.591Z,26.34
2018-09-11T12:31:38.585Z,26.36
2018-09-11T12:32:42.000Z,26.39
2018-09-11T12:33:38.554Z,26.34
2018-09-11T12:34:38.750Z,26.27
2018-09-11T12:36:11.748Z,26.18
2018-09-11T12:36:38.527Z,26.29
2018-09-11T12:37:38.515Z,26.41
2018-09-11T12:38:38.512Z,26.33
2018-09-11T12:39:38.494Z,26.33
2018-09-11T12:40:38.491Z,26.31
2018-09-11T12:41:38.488Z,26.33
2018-09-11T12:42:38.480Z,26.22
2018-09-11T12:43:38.457Z,26.23
2018-09-11T12:44:38.446Z,26.15
2018-09-11T12:45:38.471Z,26.24
2018-09-11T12:46:38.719Z,26.19
2018-09-11T12:47:38.853Z,26.24
2018-09-11T12:48:38.516Z,26.11
2018-09-11T12:49:38.396Z,26.10
2018-09-11T12:50:38.386Z,26.13
2018-09-11T12:51:38.384Z,26.24
2018-09-11T12:52:38.464Z,26.18
2018-09-11T12:53:38.519Z,26.18
2018-09-11T12:54:38.345Z,26.22
2018-09-11T12:55:38.331Z,26.15
2018-09-11T12:56:38.321Z,26.13
2018-09-11T12:57:38.311Z,26.24
2018-09-11T12:58:38.302Z,26.13
2018-09-11T12:59:38.298Z,26.07
2018-09-11T13:00:38.284Z,25.85
2018-09-11T13:01:38.277Z,25.77
2018-09-11T13:02:41.095Z,25.92
2018-09-11T13:03:38.251Z,26.03
2018-09-11T13:05:22.624Z,26.18